Terminal Aerodrome Forecast
Issued by NWS

Home | Current Version | Previous Version | Text Only | Print | Product List | Glossary Off
Versions: 1 2 3 4 5 6 7 8 9 10 11 12 13 14 15 16 17 18 19 20 21 22 23 24 25 26 27 28 29 30 31 32

000
FTUS43 KLOT 292200 AAB
TAFORD
TAF AMD
KORD 292202Z 2922/3024 29010KT P6SM BKN045
     FM292300 29007KT P6SM SCT045
     FM300200 28003KT P6SM SKC
     FM301600 24004KT P6SM SCT120 BKN250
     FM301900 23007KT P6SM SCT050 BKN100=

USA.gov is the U.S. government's official web portal to all federal, state and local government web resources and services.